East Rockaway, New York
Current Conditions -  °F | °C
As of 6:51 PM on Saturday 25 Oct 2014 (Local Time) from KJFK Reporting Station
Scattered Clouds Scattered Clouds  
Wind Chill: 62°   Ceiling: Unl
Heat Index: 62°   Visibility: 10mi
Dew Point: 47°   Wind: 12mph
Humidity: 58%   Direction: 230°SW
Pressure: 29.66"   Gusts: NA
Location:  40.65°N, 73.66°W
Report Text: KJFK 252251Z 23010KT 10SM FEW070 SCT260 17/08 A2966 RMK AO2 SLP044 T01670083
Loading
Personal Weather Stations






























Interactive Weather Map
Tropical Storm Tracking
New forecast layout! Learn more

10-Day Weather Forecast

Advertisements
Track Severe Weather on mobile